createdAt,value
2022-12-31T00:00:00.450Z,12.67
2022-12-31T00:02:28.237Z,12.69
2022-12-31T00:04:54.972Z,12.66
2022-12-31T00:07:21.306Z,12.65
2022-12-31T00:09:47.636Z,12.65
2022-12-31T00:12:13.945Z,12.66
2022-12-31T00:14:40.287Z,12.67
2022-12-31T00:17:06.638Z,12.72
2022-12-31T00:19:34.325Z,12.70
2022-12-31T00:22:00.621Z,12.69
2022-12-31T00:24:26.950Z,12.69
2022-12-31T00:26:53.228Z,12.68
2022-12-31T00:29:19.549Z,12.72
2022-12-31T00:31:45.856Z,12.74
2022-12-31T00:34:12.138Z,12.73
2022-12-31T00:36:39.947Z,12.74
2022-12-31T00:39:07.239Z,12.75
2022-12-31T00:41:33.577Z,12.74
2022-12-31T00:43:59.949Z,12.74
2022-12-31T00:46:26.674Z,12.73
2022-12-31T00:48:53.477Z,12.71
2022-12-31T00:51:21.016Z,12.71
2022-12-31T00:53:48.742Z,12.71
2022-12-31T00:56:16.163Z,12.68
2022-12-31T00:58:42.678Z,12.66
2022-12-31T01:01:09.843Z,12.68
2022-12-31T01:03:36.556Z,12.77
2022-12-31T01:06:03.161Z,12.74
2022-12-31T01:08:29.492Z,12.76
2022-12-31T01:10:57.154Z,12.79
2022-12-31T01:13:23.433Z,12.87
2022-12-31T01:15:49.787Z,12.86
2022-12-31T01:18:16.126Z,12.96
2022-12-31T01:20:43.408Z,13.01
2022-12-31T01:23:11.071Z,13.13
2022-12-31T01:25:38.199Z,13.14
2022-12-31T01:28:06.341Z,13.15
2022-12-31T01:30:32.685Z,13.17
2022-12-31T01:32:59.015Z,13.15
2022-12-31T01:35:25.476Z,13.26
2022-12-31T01:37:51.787Z,13.35
2022-12-31T01:40:18.088Z,13.37
2022-12-31T01:42:44.402Z,13.46
2022-12-31T01:45:12.811Z,13.45
2022-12-31T01:47:41.202Z,13.49
2022-12-31T01:50:10.267Z,13.48
2022-12-31T01:52:38.419Z,13.50
2022-12-31T01:55:09.099Z,13.52
2022-12-31T01:57:36.171Z,13.55
2022-12-31T02:00:03.294Z,13.58
2022-12-31T02:02:31.023Z,13.55
2022-12-31T02:04:58.189Z,13.63
2022-12-31T02:07:24.583Z,13.65
2022-12-31T02:09:51.551Z,13.64
2022-12-31T02:12:17.889Z,13.67
2022-12-31T02:14:46.579Z,13.69
2022-12-31T02:17:15.501Z,13.71
2022-12-31T02:19:59.721Z,13.71
2022-12-31T02:22:34.133Z,13.65
2022-12-31T02:25:19.635Z,13.66
2022-12-31T02:27:51.437Z,13.59
2022-12-31T02:30:20.543Z,13.50
2022-12-31T02:33:04.758Z,13.44
2022-12-31T02:35:31.655Z,13.43
2022-12-31T02:38:00.680Z,13.41
2022-12-31T02:40:27.062Z,13.37
2022-12-31T02:42:55.557Z,13.25
2022-12-31T02:45:27.228Z,13.25
2022-12-31T02:48:02.056Z,13.23
2022-12-31T02:50:35.940Z,13.17
2022-12-31T02:53:08.462Z,13.18
2022-12-31T02:55:38.829Z,13.14
2022-12-31T02:58:09.609Z,13.09
2022-12-31T03:00:41.038Z,13.06
2022-12-31T03:03:07.878Z,12.96
2022-12-31T03:05:36.408Z,12.94
2022-12-31T03:08:02.953Z,12.95
2022-12-31T03:10:29.228Z,12.87
2022-12-31T03:12:55.566Z,12.87
2022-12-31T03:15:23.305Z,12.87
2022-12-31T03:17:55.813Z,12.83
2022-12-31T03:20:24.212Z,12.77
2022-12-31T03:22:50.553Z,12.76
2022-12-31T03:25:18.259Z,12.70
2022-12-31T03:27:45.382Z,12.68
2022-12-31T03:30:12.646Z,12.64
2022-12-31T03:32:39.094Z,12.64
2022-12-31T03:35:07.692Z,12.64
2022-12-31T03:37:34.035Z,12.64
2022-12-31T03:40:00.334Z,12.66
2022-12-31T03:42:26.774Z,12.69
2022-12-31T03:44:53.112Z,12.78
2022-12-31T03:47:19.449Z,12.87
2022-12-31T03:49:45.937Z,12.93
2022-12-31T03:52:13.604Z,13.04
2022-12-31T03:54:39.890Z,13.15
2022-12-31T03:57:06.349Z,13.29
2022-12-31T03:59:32.703Z,13.34
2022-12-31T04:01:59.154Z,13.41
2022-12-31T04:04:25.550Z,13.43
2022-12-31T04:06:51.900Z,13.44
2022-12-31T04:09:19.675Z,13.52
2022-12-31T04:11:46.066Z,13.53
2022-12-31T04:14:12.445Z,13.60
2022-12-31T04:16:39.000Z,13.72
2022-12-31T04:19:05.294Z,13.74
2022-12-31T04:21:34.983Z,13.81
2022-12-31T04:24:01.672Z,13.89
2022-12-31T04:26:29.627Z,14.01
2022-12-31T04:28:56.104Z,14.09
2022-12-31T04:31:22.546Z,14.10
2022-12-31T04:33:48.895Z,14.17
2022-12-31T04:36:15.328Z,14.27
2022-12-31T04:38:41.650Z,14.22
2022-12-31T04:41:08.037Z,14.31
2022-12-31T04:43:35.724Z,14.30
2022-12-31T04:46:02.048Z,14.36
2022-12-31T04:48:28.430Z,14.33
2022-12-31T04:50:54.720Z,14.39
2022-12-31T04:53:21.029Z,14.40
2022-12-31T04:55:47.328Z,14.43
2022-12-31T04:58:13.631Z,14.47
2022-12-31T05:00:41.240Z,14.49
2022-12-31T05:03:07.579Z,14.50
2022-12-31T05:05:38.085Z,14.50
2022-12-31T05:08:04.499Z,14.55
2022-12-31T05:10:30.791Z,14.63
2022-12-31T05:12:57.069Z,14.66
2022-12-31T05:15:23.359Z,14.65
2022-12-31T05:17:51.097Z,14.64
2022-12-31T05:20:17.534Z,14.70
2022-12-31T05:22:43.852Z,14.67
2022-12-31T05:25:10.145Z,14.70
2022-12-31T05:27:36.512Z,14.72
2022-12-31T05:30:03.159Z,14.66
2022-12-31T05:32:29.470Z,14.59
2022-12-31T05:34:57.420Z,14.56
2022-12-31T05:37:23.733Z,14.56
2022-12-31T05:39:50.064Z,14.55
2022-12-31T05:42:16.389Z,14.53
2022-12-31T05:44:42.732Z,14.52
2022-12-31T05:47:09.069Z,14.62
2022-12-31T05:49:35.403Z,14.56
2022-12-31T05:52:03.358Z,14.58
2022-12-31T05:54:29.658Z,14.65
2022-12-31T05:56:55.950Z,14.66
2022-12-31T05:59:22.290Z,14.71
2022-12-31T06:01:48.605Z,14.74
2022-12-31T06:04:14.892Z,14.71
2022-12-31T06:06:41.215Z,14.76
2022-12-31T06:09:08.846Z,14.78
2022-12-31T06:11:35.201Z,14.90
2022-12-31T06:14:01.748Z,14.96
2022-12-31T06:16:28.087Z,14.92
2022-12-31T06:18:54.507Z,14.95
2022-12-31T06:21:21.183Z,15.01
2022-12-31T06:23:47.794Z,15.10
2022-12-31T06:26:15.850Z,15.12
2022-12-31T06:28:42.388Z,15.15
2022-12-31T06:31:10.970Z,15.26
2022-12-31T06:33:37.327Z,15.29
2022-12-31T06:36:05.129Z,15.34
2022-12-31T06:38:32.536Z,15.28
2022-12-31T06:41:02.456Z,15.33
2022-12-31T06:43:30.124Z,15.32
2022-12-31T06:45:59.776Z,15.33
2022-12-31T06:48:26.145Z,15.35
2022-12-31T06:50:52.473Z,15.35
2022-12-31T06:53:18.869Z,15.45
2022-12-31T06:55:45.464Z,15.50
2022-12-31T06:58:12.761Z,15.59
2022-12-31T07:00:43.191Z,15.52
2022-12-31T07:03:19.318Z,15.48
2022-12-31T07:05:46.903Z,15.50
2022-12-31T07:08:18.833Z,15.52
2022-12-31T07:10:48.148Z,15.54
2022-12-31T07:13:23.664Z,15.50
2022-12-31T07:16:01.083Z,15.58
2022-12-31T07:18:33.807Z,15.56
2022-12-31T07:21:00.411Z,15.59
2022-12-31T07:23:27.031Z,15.53
2022-12-31T07:25:56.131Z,15.54
2022-12-31T07:28:31.521Z,15.53
2022-12-31T07:31:02.692Z,15.47
2022-12-31T07:33:36.478Z,15.45
2022-12-31T07:36:10.268Z,15.48
2022-12-31T07:38:40.426Z,15.48
2022-12-31T07:41:12.314Z,15.54
2022-12-31T07:43:44.840Z,15.50
2022-12-31T07:46:15.548Z,15.55
2022-12-31T07:48:42.115Z,15.51
2022-12-31T07:51:09.008Z,15.47
2022-12-31T07:53:35.623Z,15.55
2022-12-31T07:56:03.760Z,15.52
2022-12-31T07:58:36.225Z,15.64
2022-12-31T08:01:03.224Z,15.57
2022-12-31T08:03:40.820Z,15.57
2022-12-31T08:06:10.992Z,15.50
2022-12-31T08:08:45.148Z,15.44
2022-12-31T08:11:14.986Z,15.42
2022-12-31T08:13:42.298Z,15.44
2022-12-31T08:16:10.455Z,15.65
2022-12-31T08:18:38.629Z,15.64
2022-12-31T08:21:09.838Z,15.67
2022-12-31T08:23:40.246Z,15.72
2022-12-31T08:26:13.501Z,15.80
2022-12-31T08:28:49.765Z,15.74
2022-12-31T08:31:17.803Z,15.80
2022-12-31T08:33:51.384Z,15.84
2022-12-31T08:36:20.933Z,15.83
2022-12-31T08:38:51.092Z,15.83
2022-12-31T08:41:23.574Z,15.81
2022-12-31T08:43:53.508Z,15.86
2022-12-31T08:46:25.424Z,15.94
2022-12-31T08:48:53.314Z,15.89
2022-12-31T08:51:21.330Z,15.96
2022-12-31T08:53:48.006Z,15.95
2022-12-31T08:56:21.474Z,15.92
2022-12-31T08:58:49.993Z,15.98
2022-12-31T09:01:18.422Z,15.98
2022-12-31T09:03:51.530Z,15.88
2022-12-31T09:06:22.168Z,16.00
2022-12-31T09:08:51.298Z,15.97
2022-12-31T09:11:23.242Z,15.96
2022-12-31T09:14:00.476Z,15.98
2022-12-31T09:16:32.010Z,16.05
2022-12-31T09:18:58.301Z,16.00
2022-12-31T09:21:26.178Z,16.01
2022-12-31T09:23:52.962Z,16.04
2022-12-31T09:26:29.034Z,16.02
2022-12-31T09:29:00.208Z,16.01
2022-12-31T09:31:29.049Z,15.98
2022-12-31T09:34:00.364Z,15.99
2022-12-31T09:36:30.551Z,15.99
2022-12-31T09:39:02.079Z,15.95
2022-12-31T09:41:54.636Z,15.94
2022-12-31T09:44:35.856Z,15.99
2022-12-31T09:47:19.874Z,16.12
2022-12-31T09:50:14.236Z,16.11
2022-12-31T09:52:47.290Z,16.18
2022-12-31T09:55:24.010Z,16.19
2022-12-31T09:57:56.357Z,16.20
2022-12-31T10:00:28.139Z,16.27
2022-12-31T10:03:13.103Z,16.28
2022-12-31T10:05:51.309Z,16.36
2022-12-31T10:08:29.901Z,16.37
2022-12-31T10:10:58.656Z,16.38
2022-12-31T10:13:44.347Z,16.41
2022-12-31T10:16:24.825Z,16.47
2022-12-31T10:19:00.101Z,16.54
2022-12-31T10:21:38.455Z,16.46
2022-12-31T10:24:11.950Z,16.52
2022-12-31T10:26:52.942Z,16.45
2022-12-31T10:29:24.431Z,16.48
2022-12-31T10:31:58.145Z,16.56
2022-12-31T10:34:26.158Z,16.58
2022-12-31T10:36:54.215Z,16.60
2022-12-31T10:39:25.358Z,16.59
2022-12-31T10:42:04.891Z,16.66
2022-12-31T10:44:58.086Z,16.59
2022-12-31T10:47:42.914Z,16.55
2022-12-31T10:50:26.870Z,16.56
2022-12-31T10:53:04.504Z,16.53
2022-12-31T10:55:52.124Z,16.57
2022-12-31T10:58:33.309Z,16.64
2022-12-31T11:01:03.143Z,16.62
2022-12-31T11:03:44.461Z,16.62
2022-12-31T11:06:30.615Z,16.56
2022-12-31T11:09:12.918Z,16.67
2022-12-31T11:11:44.831Z,16.69
2022-12-31T11:14:41.462Z,16.65
2022-12-31T11:17:15.274Z,16.68
2022-12-31T11:19:49.453Z,16.72
2022-12-31T11:22:26.982Z,16.79
2022-12-31T11:25:06.112Z,16.78
2022-12-31T11:27:46.062Z,16.78
2022-12-31T11:30:19.326Z,16.75
2022-12-31T11:32:53.661Z,16.72
2022-12-31T11:35:25.080Z,16.78
2022-12-31T11:37:54.212Z,16.71
2022-12-31T11:40:34.608Z,16.73
2022-12-31T11:43:04.846Z,16.78
2022-12-31T11:45:50.908Z,16.73
2022-12-31T11:48:31.308Z,16.67
2022-12-31T11:51:05.416Z,16.62
2022-12-31T11:53:42.703Z,16.69
2022-12-31T11:56:13.986Z,16.66
2022-12-31T11:58:44.585Z,16.69
2022-12-31T12:01:13.863Z,16.62
2022-12-31T12:03:40.729Z,16.74
2022-12-31T12:06:11.368Z,16.71
2022-12-31T12:08:37.762Z,16.63
2022-12-31T12:11:06.319Z,16.57
2022-12-31T12:13:32.806Z,16.41
2022-12-31T12:16:01.437Z,16.49
2022-12-31T12:18:29.482Z,16.32
2022-12-31T12:21:05.365Z,16.29
2022-12-31T12:23:31.940Z,16.27
2022-12-31T12:25:58.744Z,16.26
2022-12-31T12:28:26.004Z,16.23
2022-12-31T12:30:53.375Z,16.21
2022-12-31T12:33:21.431Z,16.29
2022-12-31T12:35:47.930Z,16.26
2022-12-31T12:38:15.197Z,16.27
2022-12-31T12:40:41.935Z,16.27
2022-12-31T12:43:20.967Z,16.33
2022-12-31T12:45:51.686Z,16.38
2022-12-31T12:48:19.767Z,16.32
2022-12-31T12:50:48.775Z,16.31
2022-12-31T12:53:19.767Z,16.32
2022-12-31T12:55:52.508Z,16.37
2022-12-31T12:58:29.711Z,16.43
2022-12-31T13:01:00.333Z,16.44
2022-12-31T13:03:36.503Z,16.43
2022-12-31T13:06:15.450Z,16.45
2022-12-31T13:08:51.410Z,16.51
2022-12-31T13:11:25.344Z,16.55
2022-12-31T13:13:56.600Z,16.54
2022-12-31T13:16:26.685Z,16.58
2022-12-31T13:18:57.054Z,16.55
2022-12-31T13:21:37.738Z,16.55
2022-12-31T13:24:11.268Z,16.61
2022-12-31T13:26:43.625Z,16.62
2022-12-31T13:29:14.348Z,16.59
2022-12-31T13:31:42.113Z,16.61
2022-12-31T13:34:13.093Z,16.56
2022-12-31T13:36:42.972Z,16.45
2022-12-31T13:39:14.329Z,16.51
2022-12-31T13:41:43.401Z,16.30
2022-12-31T13:44:13.949Z,16.31
2022-12-31T13:46:44.248Z,16.30
2022-12-31T13:49:15.188Z,16.33
2022-12-31T13:51:44.708Z,16.41
2022-12-31T13:54:17.876Z,16.31
2022-12-31T13:56:45.398Z,16.31
2022-12-31T13:59:16.024Z,16.31
2022-12-31T14:01:46.269Z,16.25
2022-12-31T14:04:14.358Z,16.21
2022-12-31T14:06:44.411Z,16.23
2022-12-31T14:09:13.356Z,16.28
2022-12-31T14:11:49.389Z,16.25
2022-12-31T14:14:21.200Z,16.23
2022-12-31T14:16:50.338Z,16.21
2022-12-31T14:19:23.722Z,16.18
2022-12-31T14:21:59.114Z,16.15
2022-12-31T14:24:33.014Z,16.10
2022-12-31T14:27:03.056Z,16.05
2022-12-31T14:29:33.924Z,16.02
2022-12-31T14:32:07.817Z,16.05
2022-12-31T14:34:39.227Z,16.07
2022-12-31T14:37:08.990Z,16.00
2022-12-31T14:39:41.662Z,16.12
2022-12-31T14:42:18.374Z,16.09
2022-12-31T14:44:53.643Z,16.05
2022-12-31T14:47:26.815Z,16.01
2022-12-31T14:49:56.931Z,16.01
2022-12-31T14:52:26.244Z,16.01
2022-12-31T14:54:59.373Z,15.91
2022-12-31T14:57:26.565Z,15.82
2022-12-31T14:59:54.249Z,15.88
2022-12-31T15:02:25.992Z,15.75
2022-12-31T15:05:02.578Z,15.80
2022-12-31T15:07:33.700Z,15.77
2022-12-31T15:10:06.953Z,15.77
2022-12-31T15:12:44.653Z,15.68
2022-12-31T15:15:25.449Z,15.64
2022-12-31T15:17:57.288Z,15.54
2022-12-31T15:20:40.271Z,15.61
2022-12-31T15:23:14.494Z,15.71
2022-12-31T15:25:46.555Z,15.63
2022-12-31T15:28:26.009Z,15.55
2022-12-31T15:30:55.808Z,15.60
2022-12-31T15:33:26.395Z,15.51
2022-12-31T15:35:53.974Z,15.52
2022-12-31T15:38:32.530Z,15.47
2022-12-31T15:40:59.370Z,15.40
2022-12-31T15:43:31.097Z,15.42
2022-12-31T15:45:57.603Z,15.36
2022-12-31T15:48:26.328Z,15.39
2022-12-31T15:50:55.382Z,15.29
2022-12-31T15:53:26.403Z,15.34
2022-12-31T15:55:54.701Z,15.29
2022-12-31T15:58:22.793Z,15.30
2022-12-31T16:00:56.757Z,15.32
2022-12-31T16:03:24.454Z,15.29
2022-12-31T16:05:51.348Z,15.30
2022-12-31T16:08:19.950Z,15.23
2022-12-31T16:10:46.354Z,15.25
2022-12-31T16:13:18.928Z,15.19
2022-12-31T16:15:48.475Z,15.12
2022-12-31T16:18:20.650Z,15.13
2022-12-31T16:20:49.085Z,15.18
2022-12-31T16:23:19.386Z,15.15
2022-12-31T16:25:45.828Z,15.22
2022-12-31T16:28:16.704Z,15.21
2022-12-31T16:30:44.537Z,15.22
2022-12-31T16:33:12.806Z,15.20
2022-12-31T16:35:39.132Z,15.17
2022-12-31T16:38:13.752Z,15.14
2022-12-31T16:40:41.343Z,15.11
2022-12-31T16:43:24.855Z,15.11
2022-12-31T16:45:52.608Z,15.14
2022-12-31T16:48:19.583Z,15.14
2022-12-31T16:50:47.146Z,15.11
2022-12-31T16:53:16.060Z,15.10
2022-12-31T16:55:42.332Z,15.16
2022-12-31T16:58:11.882Z,15.16
2022-12-31T17:00:38.465Z,15.10
2022-12-31T17:03:10.459Z,15.09
2022-12-31T17:05:56.256Z,15.12
2022-12-31T17:08:23.678Z,15.11
2022-12-31T17:10:50.328Z,15.11
2022-12-31T17:13:29.956Z,15.07
2022-12-31T17:15:57.426Z,15.15
2022-12-31T17:18:26.165Z,15.14
2022-12-31T17:20:53.274Z,15.06
2022-12-31T17:23:22.824Z,15.06
2022-12-31T17:25:49.260Z,15.12
2022-12-31T17:28:21.561Z,15.19
2022-12-31T17:30:48.009Z,15.08
2022-12-31T17:33:35.396Z,15.01
2022-12-31T17:36:19.422Z,15.05
2022-12-31T17:38:47.230Z,15.03
2022-12-31T17:41:14.978Z,15.04
2022-12-31T17:43:41.715Z,15.11
2022-12-31T17:46:10.504Z,15.06
2022-12-31T17:48:36.973Z,15.00
2022-12-31T17:51:03.310Z,15.05
2022-12-31T17:53:29.638Z,15.03
2022-12-31T17:56:00.358Z,15.01
2022-12-31T17:58:29.640Z,15.02
2022-12-31T18:00:56.390Z,15.08
2022-12-31T18:03:22.784Z,15.09
2022-12-31T18:05:50.858Z,15.06
2022-12-31T18:08:17.197Z,14.98
2022-12-31T18:10:44.344Z,15.01
2022-12-31T18:13:13.859Z,14.95
2022-12-31T18:15:40.173Z,14.92
2022-12-31T18:18:19.591Z,14.97
2022-12-31T18:20:51.904Z,14.94
2022-12-31T18:23:19.980Z,14.96
2022-12-31T18:25:46.551Z,14.96
2022-12-31T18:28:14.253Z,14.94
2022-12-31T18:30:41.333Z,14.94
2022-12-31T18:33:10.169Z,14.94
2022-12-31T18:38:22.906Z,14.84
2022-12-31T18:40:51.874Z,14.77
2022-12-31T18:43:19.735Z,14.76
2022-12-31T18:45:46.597Z,14.80
2022-12-31T18:48:12.980Z,14.78
2022-12-31T18:50:39.576Z,14.83
2022-12-31T18:53:06.225Z,14.88
2022-12-31T18:55:35.930Z,14.82
2022-12-31T18:58:02.353Z,14.75
2022-12-31T19:00:30.071Z,14.79
2022-12-31T19:02:56.520Z,14.87
2022-12-31T19:05:24.144Z,14.84
2022-12-31T19:07:50.437Z,14.90
2022-12-31T19:10:16.926Z,15.03
2022-12-31T19:12:43.863Z,15.04
2022-12-31T19:15:22.262Z,14.95
2022-12-31T19:17:50.030Z,14.95
2022-12-31T19:20:16.680Z,14.98
2022-12-31T19:22:42.974Z,15.06
2022-12-31T19:25:16.373Z,15.00
2022-12-31T19:27:42.720Z,15.15
2022-12-31T19:30:14.065Z,15.12
2022-12-31T19:32:40.375Z,15.17
2022-12-31T19:35:08.639Z,15.22
2022-12-31T19:37:34.959Z,15.17
2022-12-31T19:40:01.288Z,15.13
2022-12-31T19:42:27.598Z,15.15
2022-12-31T19:44:53.892Z,15.14
2022-12-31T19:47:20.248Z,15.23
2022-12-31T19:49:46.554Z,15.18
2022-12-31T19:52:14.286Z,15.24
2022-12-31T19:54:40.589Z,15.22
2022-12-31T19:57:06.875Z,15.30
2022-12-31T19:59:33.174Z,15.24
2022-12-31T20:01:59.705Z,15.38
2022-12-31T20:04:26.197Z,15.37
2022-12-31T20:06:52.518Z,15.45
2022-12-31T20:09:20.170Z,15.41
2022-12-31T20:11:46.508Z,15.36
2022-12-31T20:14:12.826Z,15.35
2022-12-31T20:16:39.183Z,15.45
2022-12-31T20:19:05.527Z,15.42
2022-12-31T20:21:31.857Z,15.40
2022-12-31T20:23:58.219Z,15.37
2022-12-31T20:26:26.042Z,15.36
2022-12-31T20:28:52.590Z,15.33
2022-12-31T20:31:20.410Z,15.36
2022-12-31T20:33:46.764Z,15.38
2022-12-31T20:36:14.054Z,15.41
2022-12-31T20:38:40.597Z,15.40
2022-12-31T20:41:07.904Z,15.40
2022-12-31T20:43:35.840Z,15.44
2022-12-31T20:46:10.835Z,15.35
2022-12-31T20:48:40.726Z,15.40
2022-12-31T20:51:07.133Z,15.42
2022-12-31T20:53:33.495Z,15.30
2022-12-31T20:56:03.452Z,15.42
2022-12-31T20:58:29.763Z,15.39
2022-12-31T21:00:57.650Z,15.33
2022-12-31T21:04:02.874Z,15.38
2022-12-31T21:06:10.806Z,15.32
2022-12-31T21:08:37.454Z,15.29
2022-12-31T21:11:03.807Z,15.24
2022-12-31T21:13:30.118Z,15.24
2022-12-31T21:15:57.838Z,15.25
2022-12-31T21:18:24.176Z,15.26
2022-12-31T21:20:51.328Z,15.31
2022-12-31T21:23:18.347Z,15.32
2022-12-31T21:25:44.905Z,15.21
2022-12-31T21:28:11.656Z,15.19
2022-12-31T21:30:38.285Z,15.23
2022-12-31T21:33:06.358Z,15.21
2022-12-31T21:35:43.734Z,15.10
2022-12-31T21:38:13.194Z,15.08
2022-12-31T21:40:39.509Z,15.12
2022-12-31T21:43:05.817Z,15.14
2022-12-31T21:45:32.125Z,15.09
2022-12-31T21:47:58.662Z,15.11
2022-12-31T21:50:26.294Z,15.13
2022-12-31T21:52:52.597Z,15.11
2022-12-31T21:55:19.028Z,15.20
2022-12-31T21:58:15.724Z,15.11
2022-12-31T22:00:42.443Z,15.11
2022-12-31T22:03:11.571Z,15.03
2022-12-31T22:05:44.852Z,15.01
2022-12-31T22:08:11.171Z,14.95
2022-12-31T22:10:37.630Z,14.99
2022-12-31T22:13:04.834Z,14.97
2022-12-31T22:15:31.250Z,15.00
2022-12-31T22:17:57.592Z,15.04
2022-12-31T22:20:28.139Z,14.96
2022-12-31T22:22:56.321Z,14.96
2022-12-31T22:25:22.615Z,14.98
2022-12-31T22:28:11.685Z,14.98
2022-12-31T22:30:35.355Z,15.02
2022-12-31T22:33:01.681Z,15.02
2022-12-31T22:35:27.963Z,15.01
2022-12-31T22:37:59.053Z,14.98
2022-12-31T22:40:27.998Z,15.02
2022-12-31T22:42:54.649Z,14.96
2022-12-31T22:45:20.982Z,14.94
2022-12-31T22:47:47.332Z,14.94
2022-12-31T22:50:13.661Z,14.91
2022-12-31T22:52:39.975Z,14.94
2022-12-31T22:55:08.525Z,15.01
2022-12-31T22:57:34.811Z,15.01
2022-12-31T23:00:01.240Z,14.99
2022-12-31T23:02:27.625Z,15.03
2022-12-31T23:04:54.373Z,15.11
2022-12-31T23:07:40.652Z,15.17
2022-12-31T23:10:09.038Z,15.15
2022-12-31T23:12:35.366Z,15.20
2022-12-31T23:15:01.719Z,15.16
2022-12-31T23:17:31.313Z,15.19
2022-12-31T23:19:58.260Z,15.18
2022-12-31T23:22:24.565Z,15.12
2022-12-31T23:24:50.888Z,15.24
2022-12-31T23:27:18.519Z,15.24
2022-12-31T23:29:47.567Z,15.14
2022-12-31T23:32:14.418Z,15.28
2022-12-31T23:34:40.725Z,15.22
2022-12-31T23:37:07.034Z,15.32
2022-12-31T23:39:33.400Z,15.23
2022-12-31T23:41:59.925Z,15.24
2022-12-31T23:44:28.152Z,15.25
2022-12-31T23:46:54.540Z,15.25
2022-12-31T23:49:21.114Z,15.23
2022-12-31T23:51:47.456Z,15.32
2022-12-31T23:54:13.760Z,15.32
2022-12-31T23:56:40.163Z,15.25
2022-12-31T23:59:06.608Z,15.28
